Aérodrome :
LOGIN :

S'inscrire | Disclaimer

   EN    FR    IT 

 










Légende :    VFR   VFR Marginal   IFR   IFR Intensif   IFR Très Intensif
Visi : 
Plafond : 
>= 8 km
>= 3000ft
5 à 8 km
1000 à 3000 ft
1500m à 5 km
500 à 1000 ft
800 à 1500m
200 à 500 ft
< 800m
< 200 ft
Symboles :   Orages  Brouillard  Fortes neiges  Fortes précipitations  Vent > 20 kt
SIGMETs :   Divers  Orages  Givrage  Turbulence  Onde Orograph.  Cendres Volcan.







- Altitude de l'aérodrome : 19 ft
- Code IATA : LCY
- Voir les cartes d'approche


EGLC - London City

DERNIER METAR :
  • 281150Z AUTO 31004KT 270V010 9999 BKN034 11/04 Q1017

METARs EXPIRÉS :
  • 281120Z AUTO 28007KT 250V320 9999 BKN034 OVC041 11/04 Q1017
  • 281050Z AUTO 30005KT 230V020 9999 OVC032 11/03 Q1017
  • 281020Z AUTO 26006KT 220V300 9999 BKN031 OVC044 11/04 Q1017
  • 280950Z AUTO 32006KT 280V030 9999 -RA BKN030 11/03 Q1017
  • 280920Z AUTO 30008KT 9999 FEW026 SCT034 10/04 Q1017

TAF TAF EGLC
Valide du 28 à 12h jusqu'au 28 à 21h UTC


281104Z 2812/2821 30009KT 9999 SCT035
ATIS : +44 20 7646 0224
Pas de NOTAMs connus pour ce terrain.



MET'MAP, la Météo Aéronautique d'un coup d'oeil ! - Copyright ORBIFLY Décembre 2007 - Disclaimer

ORBIFLY MET'MAP TEAM :

Programmation & Développement : Alexandra Zaïnal
Conception & Développement : Baudouin d'Aumeries
Co-Programmation & Développement : Marc-Olivier Méhu
Soutien technique & logistique : Manuel Goepfert

Contact : metmap@orbifly.com




SOURCES & CREDITS :

   NOAA